Time;durP1;ratioP1;P1;durP2;ratioP2;P2;SDS_P1;SDS_P2;PMS_P1;PMS_P2;Temp;Humidity;BMP_temperature;BMP_pressure;BME280_temperature;BME280_humidity;BME280_pressure;Samples;Min_cycle;Max_cycle;Signal;HPM_P1;HPM_P2
2023/01/28 00:02:24;;;;;;;3.25;1.67;;;;;;;;;;4999287;28;20050;-86
2023/01/28 00:04:50;;;;;;;1.33;1.23;;;;;;;;;;4997797;28;20106;-86
2023/01/28 00:07:17;;;;;;;1.08;1.08;;;;;;;;;;4996599;28;20132;-86
2023/01/28 00:09:44;;;;;;;1.77;1.67;;;;;;;;;;4996675;28;20090;-86
2023/01/28 00:12:11;;;;;;;0.50;0.50;;;;;;;;;;4996375;28;20484;-86
2023/01/28 00:14:39;;;;;;;1.95;1.85;;;;;;;;;;4996511;28;20050;-85
2023/01/28 00:17:05;;;;;;;0.85;0.85;;;;;;;;;;4996539;28;20062;-85
2023/01/28 00:19:32;;;;;;;0.50;0.50;;;;;;;;;;4996603;28;20053;-85
2023/01/28 00:21:58;;;;;;;0.95;0.95;;;;;;;;;;4996414;28;20051;-87
2023/01/28 00:24:25;;;;;;;1.08;1.08;;;;;;;;;;4997958;28;20057;-86
2023/01/28 00:26:51;;;;;;;0.40;0.40;;;;;;;;;;4996497;28;20551;-87
2023/01/28 00:29:18;;;;;;;0.82;0.82;;;;;;;;;;4996680;28;20104;-87
2023/01/28 00:31:46;;;;;;;1.00;0.88;;;;;;;;;;4996030;28;20053;-86
2023/01/28 00:34:12;;;;;;;2.33;2.22;;;;;;;;;;4996220;28;20047;-86
2023/01/28 00:36:41;;;;;;;0.85;0.85;;;;;;;;;;4996174;28;20104;-86
2023/01/28 00:39:11;;;;;;;1.83;1.20;;;;;;;;;;4995856;28;20591;-86
2023/01/28 00:41:37;;;;;;;2.40;1.63;;;;;;;;;;4996525;28;20101;-86
2023/01/28 00:44:04;;;;;;;2.17;2.03;;;;;;;;;;4995654;28;20104;-86
2023/01/28 00:46:31;;;;;;;0.40;0.40;;;;;;;;;;4996392;28;20181;-87
2023/01/28 00:48:58;;;;;;;0.55;0.55;;;;;;;;;;4996161;28;20132;-86
2023/01/28 00:51:25;;;;;;;1.00;1.00;;;;;;;;;;4995923;28;20046;-85
2023/01/28 00:53:52;;;;;;;1.80;1.70;;;;;;;;;;4995753;28;20166;-86
2023/01/28 00:56:19;;;;;;;1.25;1.25;;;;;;;;;;4996061;28;20050;-87
2023/01/28 00:58:46;;;;;;;0.95;0.95;;;;;;;;;;4995415;28;20096;-86
2023/01/28 01:01:13;;;;;;;0.85;0.85;;;;;;;;;;4995627;28;20428;-86
2023/01/28 01:03:40;;;;;;;0.70;0.70;;;;;;;;;;4995539;28;20046;-86
2023/01/28 01:06:08;;;;;;;2.30;2.20;;;;;;;;;;4995042;28;20050;-85
2023/01/28 01:08:38;;;;;;;1.38;1.35;;;;;;;;;;4995367;28;20141;-85
2023/01/28 01:11:06;;;;;;;1.92;1.83;;;;;;;;;;4995625;28;20054;-86
2023/01/28 01:13:33;;;;;;;0.75;0.68;;;;;;;;;;4994703;28;20054;-85
2023/01/28 01:16:04;;;;;;;1.02;1.02;;;;;;;;;;4995226;28;20504;-86
2023/01/28 01:18:30;;;;;;;0.95;0.95;;;;;;;;;;4995566;28;20416;-86
2023/01/28 01:20:57;;;;;;;1.20;1.10;;;;;;;;;;4994651;28;20101;-85
2023/01/28 01:23:26;;;;;;;1.50;1.40;;;;;;;;;;4995269;28;20042;-85
2023/01/28 01:25:52;;;;;;;0.57;0.57;;;;;;;;;;5000144;28;20093;-86
2023/01/28 01:28:19;;;;;;;0.40;0.40;;;;;;;;;;4994920;28;20090;-85
2023/01/28 01:30:46;;;;;;;0.85;0.85;;;;;;;;;;4994707;28;20420;-86
2023/01/28 01:33:12;;;;;;;1.13;1.13;;;;;;;;;;4994673;28;20488;-85
2023/01/28 01:35:39;;;;;;;1.33;1.25;;;;;;;;;;4994449;28;20050;-85
2023/01/28 01:38:05;;;;;;;1.33;1.25;;;;;;;;;;4994900;28;20054;-85
2023/01/28 01:40:33;;;;;;;0.98;0.95;;;;;;;;;;4994681;28;20046;-85
2023/01/28 01:43:00;;;;;;;0.75;0.75;;;;;;;;;;4994327;28;20047;-85
2023/01/28 01:45:28;;;;;;;0.52;0.52;;;;;;;;;;4999215;28;20455;-85
2023/01/28 01:47:57;;;;;;;1.48;1.05;;;;;;;;;;4995196;28;20169;-85
2023/01/28 01:50:25;;;;;;;1.13;1.00;;;;;;;;;;4994395;28;20046;-85
2023/01/28 01:52:54;;;;;;;1.17;1.13;;;;;;;;;;4994682;28;20046;-85
2023/01/28 01:55:23;;;;;;;1.10;1.10;;;;;;;;;;4994338;28;20050;-85
2023/01/28 01:57:51;;;;;;;1.08;0.98;;;;;;;;;;4994706;28;20054;-85
2023/01/28 02:00:18;;;;;;;0.52;0.52;;;;;;;;;;4994659;28;20058;-85
2023/01/28 02:02:46;;;;;;;0.75;0.75;;;;;;;;;;4995967;28;20054;-85
2023/01/28 02:05:14;;;;;;;0.68;0.68;;;;;;;;;;4994627;28;20050;-84
2023/01/28 02:07:40;;;;;;;1.38;1.27;;;;;;;;;;4994912;28;20050;-86
2023/01/28 02:10:08;;;;;;;1.23;0.80;;;;;;;;;;4994411;28;20105;-86
2023/01/28 02:12:35;;;;;;;0.85;0.85;;;;;;;;;;5016179;23;20054;-86
2023/01/28 02:15:06;;;;;;;0.50;0.50;;;;;;;;;;4994230;28;20516;-87
2023/01/28 02:17:32;;;;;;;2.03;1.70;;;;;;;;;;4994203;28;20455;-86
2023/01/28 02:20:00;;;;;;;1.20;1.10;;;;;;;;;;4993646;28;20547;-86
2023/01/28 02:22:46;;;;;;;0.60;0.60;;;;;;;;;;4994015;28;20456;-84
2023/01/28 02:25:43;;;;;;;1.27;1.20;;;;;;;;;;4992821;28;20480;-85
2023/01/28 02:28:09;;;;;;;;;;;;;;;;;;4915438;29;20121;-85
2023/01/28 02:30:40;;;;;;;0.47;0.40;;;;;;;;;;4915044;29;19923;-85
2023/01/28 02:33:10;;;;;;;0.40;0.40;;;;;;;;;;4915791;29;20048;-85
2023/01/28 02:35:41;;;;;;;0.50;0.50;;;;;;;;;;4914736;29;20052;-85
2023/01/28 02:38:09;;;;;;;0.60;0.60;;;;;;;;;;4915465;29;20065;-85
2023/01/28 02:41:00;;;;;;;1.23;1.17;;;;;;;;;;4915096;29;20133;-85
2023/01/28 02:43:34;;;;;;;1.13;1.02;;;;;;;;;;4914656;29;20052;-86
2023/01/28 02:48:54;;;;;;;1.10;1.10;;;;;;;;;;4915072;29;20088;-85
2023/01/28 02:51:24;;;;;;;1.85;1.75;;;;;;;;;;4914409;29;20092;-85
2023/01/28 02:53:55;;;;;;;0.93;0.93;;;;;;;;;;4915300;29;20575;-86
2023/01/28 02:56:28;;;;;;;0.40;0.40;;;;;;;;;;4914781;29;20078;-85
2023/01/28 02:58:58;;;;;;;1.05;1.05;;;;;;;;;;4914963;29;20064;-86
2023/01/28 03:01:28;;;;;;;1.23;1.17;;;;;;;;;;4925125;28;20471;-86
2023/01/28 03:03:57;;;;;;;0.52;0.52;;;;;;;;;;4993871;28;20097;-86
2023/01/28 03:06:26;;;;;;;0.73;0.73;;;;;;;;;;4994654;28;20050;-86
2023/01/28 03:36:49;;;;;;;0.52;0.52;;;;;;;;;;4995615;28;20136;-86
2023/01/28 03:39:16;;;;;;;1.35;1.30;;;;;;;;;;4996802;28;20086;-86
2023/01/28 03:41:43;;;;;;;1.58;1.48;;;;;;;;;;4996722;28;20459;-85
2023/01/28 03:46:53;;;;;;;0.65;0.65;;;;;;;;;;4996791;28;20116;-85
2023/01/28 03:49:20;;;;;;;1.02;1.02;;;;;;;;;;4996425;28;20104;-86
2023/01/28 03:51:47;;;;;;;0.80;0.80;;;;;;;;;;4997203;28;20054;-86
2023/01/28 03:54:14;;;;;;;0.50;0.50;;;;;;;;;;4997075;28;20055;-86
2023/01/28 03:56:40;;;;;;;1.42;1.35;;;;;;;;;;4996342;28;20593;-86
2023/01/28 03:59:07;;;;;;;4.15;1.98;;;;;;;;;;4997039;28;20050;-86
2023/01/28 04:01:34;;;;;;;1.33;0.85;;;;;;;;;;4996713;28;20046;-85
2023/01/28 04:04:00;;;;;;;0.50;0.47;;;;;;;;;;4996364;28;20483;-86
2023/01/28 04:06:28;;;;;;;0.95;0.95;;;;;;;;;;4996209;28;20555;-86
2023/01/28 04:08:58;;;;;;;0.55;0.55;;;;;;;;;;4996677;28;20050;-85
2023/01/28 04:11:25;;;;;;;1.05;0.98;;;;;;;;;;4996030;28;20080;-85
2023/01/28 04:13:51;;;;;;;0.60;0.60;;;;;;;;;;4996772;28;20054;-84
2023/01/28 04:16:19;;;;;;;1.00;0.95;;;;;;;;;;4996249;28;20116;-85
2023/01/28 04:18:45;;;;;;;0.60;0.60;;;;;;;;;;4996240;28;20053;-84
2023/01/28 04:21:12;;;;;;;10.82;1.42;;;;;;;;;;4996494;28;20108;-84
2023/01/28 04:23:40;;;;;;;0.30;0.30;;;;;;;;;;4995960;28;20057;-85
2023/01/28 04:26:07;;;;;;;0.40;0.40;;;;;;;;;;4996181;28;20495;-85
2023/01/28 04:28:33;;;;;;;1.27;0.80;;;;;;;;;;4996141;28;20141;-84
2023/01/28 04:31:00;;;;;;;0.60;0.55;;;;;;;;;;4996353;28;20117;-85
2023/01/28 04:33:26;;;;;;;1.27;1.20;;;;;;;;;;4995783;28;20073;-85
2023/01/28 04:35:53;;;;;;;0.90;0.70;;;;;;;;;;4996262;28;20046;-84
2023/01/28 04:38:19;;;;;;;0.63;0.63;;;;;;;;;;4996032;28;20051;-85
2023/01/28 04:40:50;;;;;;;1.38;1.38;;;;;;;;;;4995274;28;20464;-84
2023/01/28 04:43:17;;;;;;;1.00;1.00;;;;;;;;;;4996077;28;20046;-84
2023/01/28 04:45:43;;;;;;;0.77;0.77;;;;;;;;;;4995932;28;20058;-85
2023/01/28 04:48:10;;;;;;;0.50;0.50;;;;;;;;;;4994626;28;20050;-85
2023/01/28 04:50:36;;;;;;;1.00;1.00;;;;;;;;;;4995922;28;20051;-85
2023/01/28 04:53:03;;;;;;;0.70;0.68;;;;;;;;;;4995689;28;20105;-85
2023/01/28 04:55:29;;;;;;;1.52;1.25;;;;;;;;;;4996193;28;20054;-85
2023/01/28 04:57:57;;;;;;;0.52;0.52;;;;;;;;;;4995505;28;20050;-85
2023/01/28 05:00:24;;;;;;;0.75;0.75;;;;;;;;;;4995106;28;20046;-85
2023/01/28 05:02:50;;;;;;;2.60;1.08;;;;;;;;;;4995649;28;20046;-86
2023/01/28 05:05:17;;;;;;;0.80;0.80;;;;;;;;;;4995298;28;20113;-86
2023/01/28 05:07:43;;;;;;;0.93;0.93;;;;;;;;;;4995298;28;20042;-85
2023/01/28 05:10:10;;;;;;;2.17;2.08;;;;;;;;;;4994890;28;20551;-85
2023/01/28 05:12:37;;;;;;;0.85;0.85;;;;;;;;;;4995105;28;20054;-86
2023/01/28 05:15:05;;;;;;;0.88;0.88;;;;;;;;;;4995203;28;20452;-85
2023/01/28 05:17:32;;;;;;;0.73;0.73;;;;;;;;;;4995405;28;20055;-85
2023/01/28 05:19:58;;;;;;;2.50;2.30;;;;;;;;;;4995211;28;20448;-85
2023/01/28 05:22:25;;;;;;;0.70;0.70;;;;;;;;;;4995609;28;20054;-85
2023/01/28 05:24:51;;;;;;;1.05;1.05;;;;;;;;;;4994978;28;20046;-86
2023/01/28 05:27:18;;;;;;;1.23;1.00;;;;;;;;;;4994949;28;20097;-84
2023/01/28 05:29:44;;;;;;;0.60;0.60;;;;;;;;;;4994561;28;20054;-85
2023/01/28 05:32:12;;;;;;;1.00;1.00;;;;;;;;;;4994472;28;20519;-85
2023/01/28 05:34:38;;;;;;;0.75;0.75;;;;;;;;;;4994311;28;20101;-85
2023/01/28 05:37:05;;;;;;;0.93;0.93;;;;;;;;;;4995031;28;20054;-85
2023/01/28 05:39:31;;;;;;;1.17;1.17;;;;;;;;;;4994764;28;20109;-85
2023/01/28 05:41:58;;;;;;;0.75;0.75;;;;;;;;;;4994842;28;20467;-85
2023/01/28 05:44:24;;;;;;;0.45;0.45;;;;;;;;;;4995020;28;20098;-85
2023/01/28 05:46:51;;;;;;;0.95;0.95;;;;;;;;;;4995064;28;20124;-86
2023/01/28 05:49:19;;;;;;;1.05;0.98;;;;;;;;;;4992027;28;20054;-86
2023/01/28 05:51:47;;;;;;;1.92;1.35;;;;;;;;;;4975366;28;20058;-86
2023/01/28 05:56:57;;;;;;;0.52;0.52;;;;;;;;;;4974888;28;20102;-85
2023/01/28 05:59:24;;;;;;;0.65;0.65;;;;;;;;;;4974836;28;20555;-84
2023/01/28 06:01:50;;;;;;;2.00;1.80;;;;;;;;;;4974849;28;20051;-85
2023/01/28 06:04:19;;;;;;;1.98;1.88;;;;;;;;;;4975258;28;20105;-84
2023/01/28 06:06:45;;;;;;;2.58;2.30;;;;;;;;;;4975313;28;20058;-84
2023/01/28 06:09:12;;;;;;;0.82;0.82;;;;;;;;;;4974751;28;20717;-85
2023/01/28 06:11:38;;;;;;;0.40;0.38;;;;;;;;;;4974384;28;20059;-84
2023/01/28 06:14:05;;;;;;;0.30;0.30;;;;;;;;;;4975232;28;20046;-84
2023/01/28 06:16:31;;;;;;;0.75;0.75;;;;;;;;;;4974440;28;20046;-85
2023/01/28 06:18:58;;;;;;;1.27;0.88;;;;;;;;;;4974890;28;20685;-85
2023/01/28 06:21:26;;;;;;;0.65;0.65;;;;;;;;;;4974186;28;20047;-84
2023/01/28 06:23:52;;;;;;;0.90;0.90;;;;;;;;;;4974163;28;20054;-85
2023/01/28 06:26:19;;;;;;;0.50;0.50;;;;;;;;;;4974721;28;20191;-84
2023/01/28 06:28:45;;;;;;;0.35;0.35;;;;;;;;;;4975099;28;20133;-85
2023/01/28 06:31:12;;;;;;;1.30;1.20;;;;;;;;;;4974595;28;20063;-85
2023/01/28 06:33:38;;;;;;;1.27;0.77;;;;;;;;;;4974740;28;20050;-85
2023/01/28 06:36:05;;;;;;;3.38;2.90;;;;;;;;;;4975091;28;20047;-85
2023/01/28 06:38:33;;;;;;;0.80;0.73;;;;;;;;;;4974188;28;20054;-85
2023/01/28 06:41:00;;;;;;;6.75;3.95;;;;;;;;;;4974600;28;20051;-85
2023/01/28 06:43:29;;;;;;;0.85;0.82;;;;;;;;;;4974320;28;20059;-85
2023/01/28 06:45:55;;;;;;;1.35;1.25;;;;;;;;;;4974706;28;20050;-85
2023/01/28 06:48:22;;;;;;;4.43;1.85;;;;;;;;;;4974350;28;20047;-85
2023/01/28 06:50:49;;;;;;;0.90;0.90;;;;;;;;;;4974638;28;20493;-85
2023/01/28 06:55:58;;;;;;;1.45;1.15;;;;;;;;;;4978111;28;20094;-85
2023/01/28 06:58:24;;;;;;;1.15;1.05;;;;;;;;;;4974227;28;20046;-85
2023/01/28 07:00:51;;;;;;;2.45;1.42;;;;;;;;;;4974346;28;20113;-84
2023/01/28 07:03:17;;;;;;;1.08;1.00;;;;;;;;;;4974581;28;20055;-86
2023/01/28 07:05:44;;;;;;;0.73;0.73;;;;;;;;;;4974329;28;20476;-85
2023/01/28 07:08:10;;;;;;;5.00;3.55;;;;;;;;;;4974067;28;20063;-84
2023/01/28 07:10:37;;;;;;;3.08;2.88;;;;;;;;;;4974879;28;20094;-85
2023/01/28 07:13:05;;;;;;;2.55;2.28;;;;;;;;;;4977776;28;20054;-85
2023/01/28 07:15:31;;;;;;;3.70;3.40;;;;;;;;;;4978072;28;20448;-86
2023/01/28 07:17:58;;;;;;;1.13;1.05;;;;;;;;;;4977838;28;20058;-85
2023/01/28 07:20:24;;;;;;;0.77;0.77;;;;;;;;;;4977528;28;20098;-85
2023/01/28 07:22:51;;;;;;;0.60;0.60;;;;;;;;;;4978166;28;20409;-86
2023/01/28 07:25:17;;;;;;;3.22;2.90;;;;;;;;;;4989170;28;20050;-85
2023/01/28 07:27:48;;;;;;;1.90;1.80;;;;;;;;;;4988146;28;20054;-86
2023/01/28 07:30:16;;;;;;;1.98;1.88;;;;;;;;;;4977462;28;20433;-85
2023/01/28 07:32:43;;;;;;;2.40;1.90;;;;;;;;;;4981571;28;20059;-85
2023/01/28 07:35:09;;;;;;;1.17;1.05;;;;;;;;;;4996487;28;20050;-85
2023/01/28 07:37:36;;;;;;;1.02;0.95;;;;;;;;;;4996919;28;20054;-84
2023/01/28 07:40:03;;;;;;;0.82;0.82;;;;;;;;;;4996986;28;20054;-85
2023/01/28 07:42:29;;;;;;;1.27;1.17;;;;;;;;;;4997147;28;20457;-85
2023/01/28 07:44:56;;;;;;;0.93;0.93;;;;;;;;;;4996457;28;20116;-84
2023/01/28 07:47:24;;;;;;;0.75;0.73;;;;;;;;;;4997243;28;20046;-84
2023/01/28 07:49:50;;;;;;;0.63;0.63;;;;;;;;;;4985827;28;20050;-84
2023/01/28 07:52:17;;;;;;;2.65;2.45;;;;;;;;;;4977251;28;20050;-84
2023/01/28 07:54:43;;;;;;;1.65;1.00;;;;;;;;;;4977382;28;20105;-84
2023/01/28 07:57:10;;;;;;;0.50;0.50;;;;;;;;;;4977181;28;20102;-85
2023/01/28 07:59:36;;;;;;;1.17;1.08;;;;;;;;;;4977232;28;20055;-84
2023/01/28 08:02:03;;;;;;;0.75;0.75;;;;;;;;;;4977191;28;20059;-85
2023/01/28 08:04:31;;;;;;;1.35;1.27;;;;;;;;;;4977084;28;20043;-84
2023/01/28 08:06:57;;;;;;;0.70;0.70;;;;;;;;;;4982112;28;20051;-84
2023/01/28 08:09:24;;;;;;;0.52;0.52;;;;;;;;;;4976542;28;20054;-85
2023/01/28 08:11:50;;;;;;;3.40;2.53;;;;;;;;;;4976310;28;20162;-84
2023/01/28 08:14:17;;;;;;;1.10;1.08;;;;;;;;;;4989949;28;20516;-85
2023/01/28 08:16:43;;;;;;;3.08;1.98;;;;;;;;;;4996126;28;20046;-84
2023/01/28 08:19:10;;;;;;;1.48;1.38;;;;;;;;;;4996019;28;20493;-84
2023/01/28 08:21:38;;;;;;;1.50;0.98;;;;;;;;;;4996013;28;20046;-84
2023/01/28 08:24:05;;;;;;;4.78;1.80;;;;;;;;;;4983543;28;20105;-83
2023/01/28 08:26:32;;;;;;;0.50;0.43;;;;;;;;;;4975983;28;20051;-84
2023/01/28 08:28:58;;;;;;;2.58;2.47;;;;;;;;;;4976736;28;20474;-85
2023/01/28 08:31:25;;;;;;;1.33;1.23;;;;;;;;;;4976528;28;20106;-85
2023/01/28 08:33:51;;;;;;;0.90;0.90;;;;;;;;;;4976653;28;20480;-85
2023/01/28 08:36:18;;;;;;;0.55;0.55;;;;;;;;;;4992771;28;20058;-84
2023/01/28 08:38:46;;;;;;;3.50;2.40;;;;;;;;;;4995162;28;20097;-85
2023/01/28 08:41:12;;;;;;;1.20;1.10;;;;;;;;;;4995709;28;20495;-84
2023/01/28 08:43:38;;;;;;;0.60;0.43;;;;;;;;;;4995800;28;20046;-85
2023/01/28 08:46:05;;;;;;;2.60;1.27;;;;;;;;;;4995215;28;20097;-85
2023/01/28 08:48:32;;;;;;;0.73;0.73;;;;;;;;;;4996179;28;20464;-85
2023/01/28 08:50:59;;;;;;;2.75;2.50;;;;;;;;;;4995530;28;20677;-84
2023/01/28 08:53:26;;;;;;;2.00;1.77;;;;;;;;;;4988829;28;20133;-84
2023/01/28 08:55:54;;;;;;;2.28;2.10;;;;;;;;;;4975391;28;20062;-84
2023/01/28 08:58:20;;;;;;;0.60;0.60;;;;;;;;;;4976322;28;20050;-84
2023/01/28 09:00:47;;;;;;;0.70;0.70;;;;;;;;;;4976132;28;20047;-84
2023/01/28 09:03:14;;;;;;;0.80;0.80;;;;;;;;;;4975707;28;20102;-84
2023/01/28 09:05:40;;;;;;;1.25;1.15;;;;;;;;;;4975605;28;20488;-84
2023/01/28 09:08:08;;;;;;;0.60;0.52;;;;;;;;;;4975999;28;20057;-82
2023/01/28 09:10:36;;;;;;;1.30;1.20;;;;;;;;;;4978724;28;20100;-85
2023/01/28 09:13:06;;;;;;;1.00;1.00;;;;;;;;;;4993785;28;20109;-83
2023/01/28 09:15:32;;;;;;;2.30;1.50;;;;;;;;;;4994812;28;20051;-84
2023/01/28 09:17:59;;;;;;;1.45;1.35;;;;;;;;;;4995404;28;20105;-83
2023/01/28 09:20:26;;;;;;;0.73;0.73;;;;;;;;;;4995801;28;20125;-84
2023/01/28 09:22:52;;;;;;;0.80;0.73;;;;;;;;;;4981486;28;20130;-84
2023/01/28 09:25:19;;;;;;;2.40;2.22;;;;;;;;;;4975427;28;20512;-84
2023/01/28 09:27:45;;;;;;;1.30;1.17;;;;;;;;;;4976135;28;20051;-86
2023/01/28 09:30:14;;;;;;;0.63;0.63;;;;;;;;;;4975168;28;20504;-84
2023/01/28 09:32:40;;;;;;;1.42;1.33;;;;;;;;;;4975367;28;20047;-83
2023/01/28 09:35:07;;;;;;;0.60;0.50;;;;;;;;;;4975374;28;20175;-86
2023/01/28 09:37:33;;;;;;;2.65;1.98;;;;;;;;;;4975307;28;20055;-84
2023/01/28 09:40:00;;;;;;;1.30;1.15;;;;;;;;;;4987794;28;20046;-85
2023/01/28 09:42:39;;;;;;;1.65;1.35;;;;;;;;;;4994557;28;20054;-85
2023/01/28 09:45:10;;;;;;;7.13;2.45;;;;;;;;;;4994753;28;20480;-84
2023/01/28 09:47:40;;;;;;;2.13;1.70;;;;;;;;;;4995137;28;20108;-85
2023/01/28 09:50:08;;;;;;;1.15;1.05;;;;;;;;;;4994783;28;20412;-84
2023/01/28 09:52:36;;;;;;;0.80;0.80;;;;;;;;;;4994336;28;20054;-85
2023/01/28 09:55:04;;;;;;;0.50;0.50;;;;;;;;;;4995159;28;20054;-84
2023/01/28 09:57:36;;;;;;;1.05;1.05;;;;;;;;;;4980381;28;20496;-86
2023/01/28 10:00:03;;;;;;;1.15;1.05;;;;;;;;;;4975347;28;20496;-86
2023/01/28 10:02:35;;;;;;;1.95;1.23;;;;;;;;;;4975850;28;20086;-86
2023/01/28 10:05:08;;;;;;;2.50;1.73;;;;;;;;;;4975097;28;20129;-85
2023/01/28 10:07:37;;;;;;;1.67;1.65;;;;;;;;;;4975189;28;20054;-85
2023/01/28 10:10:09;;;;;;;1.67;1.02;;;;;;;;;;4975593;28;20054;-86
2023/01/28 10:12:50;;;;;;;0.73;0.73;;;;;;;;;;4974915;28;20105;-86
2023/01/28 10:15:24;;;;;;;1.20;1.10;;;;;;;;;;4975067;28;20117;-86
2023/01/28 10:17:51;;;;;;;0.85;0.85;;;;;;;;;;4975703;28;20047;-85
2023/01/28 10:20:24;;;;;;;2.70;2.50;;;;;;;;;;4975721;28;20094;-85
2023/01/28 10:22:54;;;;;;;2.65;2.45;;;;;;;;;;4975131;28;20130;-86
2023/01/28 10:25:21;;;;;;;1.10;0.93;;;;;;;;;;4974865;28;20043;-85
2023/01/28 10:27:48;;;;;;;2.13;2.00;;;;;;;;;;4974253;28;20587;-85
2023/01/28 10:30:19;;;;;;;2.42;2.33;;;;;;;;;;4987399;28;20571;-85
2023/01/28 10:32:49;;;;;;;0.95;0.95;;;;;;;;;;4974228;28;20059;-85
2023/01/28 10:35:16;;;;;;;1.23;1.13;;;;;;;;;;4975111;28;20098;-85
2023/01/28 10:37:44;;;;;;;2.67;2.03;;;;;;;;;;4974969;28;20054;-86
2023/01/28 10:40:13;;;;;;;1.63;1.52;;;;;;;;;;4975130;28;20109;-86
2023/01/28 10:42:39;;;;;;;3.67;3.42;;;;;;;;;;4974681;28;20633;-86
2023/01/28 10:45:08;;;;;;;0.90;0.90;;;;;;;;;;4974656;28;20102;-87
2023/01/28 10:47:39;;;;;;;0.70;0.70;;;;;;;;;;4994058;28;20046;-86
2023/01/28 10:50:07;;;;;;;0.95;0.88;;;;;;;;;;4998613;28;20050;-85
2023/01/28 10:52:34;;;;;;;1.55;1.45;;;;;;;;;;4998315;28;20165;-85
2023/01/28 10:55:03;;;;;;;1.77;1.67;;;;;;;;;;4998391;28;20120;-86
2023/01/28 10:57:29;;;;;;;1.58;1.27;;;;;;;;;;4998607;28;20050;-86
2023/01/28 10:59:56;;;;;;;5.38;2.20;;;;;;;;;;4997841;28;20050;-88
2023/01/28 11:02:26;;;;;;;1.58;1.45;;;;;;;;;;4998687;28;20054;-87
2023/01/28 11:05:01;;;;;;;7.40;3.28;;;;;;;;;;4986319;28;20113;-87
2023/01/28 11:07:27;;;;;;;3.08;2.78;;;;;;;;;;4979404;28;20054;-88
2023/01/28 11:09:54;;;;;;;0.88;0.88;;;;;;;;;;4978851;28;20051;-88
2023/01/28 11:12:23;;;;;;;3.35;3.13;;;;;;;;;;4983418;28;20055;-89
2023/01/28 11:14:51;;;;;;;1.85;1.75;;;;;;;;;;4979956;28;20050;-88
2023/01/28 11:17:18;;;;;;;5.90;3.35;;;;;;;;;;4978435;28;20145;-87
2023/01/28 11:19:45;;;;;;;1.73;1.63;;;;;;;;;;4978636;28;20058;-86
2023/01/28 11:22:20;;;;;;;1.35;1.23;;;;;;;;;;4992540;28;20054;-86
2023/01/28 11:24:48;;;;;;;1.30;1.27;;;;;;;;;;4997815;28;20495;-87
2023/01/28 11:27:16;;;;;;;1.48;1.40;;;;;;;;;;4993825;28;20047;-86
2023/01/28 11:29:44;;;;;;;2.30;1.85;;;;;;;;;;4999421;28;20078;-87
2023/01/28 11:32:18;;;;;;;1.60;1.50;;;;;;;;;;4997382;28;20050;-86
2023/01/28 11:34:49;;;;;;;0.70;0.70;;;;;;;;;;4998722;28;20050;-87
2023/01/28 11:37:16;;;;;;;1.98;1.88;;;;;;;;;;4996718;28;20125;-87
2023/01/28 11:39:42;;;;;;;1.33;1.23;;;;;;;;;;4997792;28;20518;-87
2023/01/28 11:42:15;;;;;;;0.73;0.73;;;;;;;;;;4997524;28;20050;-88
2023/01/28 11:44:42;;;;;;;2.17;1.98;;;;;;;;;;4998345;28;20050;-87
2023/01/28 11:47:27;;;;;;;3.38;1.92;;;;;;;;;;4998365;28;20053;-86
2023/01/28 11:50:14;;;;;;;1.83;1.73;;;;;;;;;;4987536;28;20101;-85
2023/01/28 11:52:51;;;;;;;0.90;0.90;;;;;;;;;;4987373;28;20078;-86
2023/01/28 11:55:23;;;;;;;3.10;2.90;;;;;;;;;;4989095;28;20062;-86
2023/01/28 11:57:55;;;;;;;2.40;2.20;;;;;;;;;;5005011;28;20133;-86
2023/01/28 12:00:30;;;;;;;1.45;1.35;;;;;;;;;;4995375;28;20078;-85
2023/01/28 12:03:04;;;;;;;1.38;1.27;;;;;;;;;;4982295;28;20125;-86
2023/01/28 12:05:45;;;;;;;3.58;2.15;;;;;;;;;;4997267;28;20451;-88
2023/01/28 12:08:18;;;;;;;2.67;1.45;;;;;;;;;;4997026;28;20676;-87
2023/01/28 12:10:48;;;;;;;0.80;0.70;;;;;;;;;;4996663;28;20050;-87
2023/01/28 12:13:21;;;;;;;1.02;0.93;;;;;;;;;;4991720;28;20137;-87
2023/01/28 12:15:56;;;;;;;2.53;1.50;;;;;;;;;;4998027;28;20463;-88
2023/01/28 12:18:32;;;;;;;1.20;0.63;;;;;;;;;;4997412;28;20057;-87
2023/01/28 12:21:07;;;;;;;3.55;2.55;;;;;;;;;;4996718;28;20050;-87
2023/01/28 12:23:44;;;;;;;1.45;1.05;;;;;;;;;;4982195;28;20563;-87
2023/01/28 12:26:13;;;;;;;0.65;0.65;;;;;;;;;;4976739;28;20047;-87
2023/01/28 12:28:50;;;;;;;2.00;1.85;;;;;;;;;;4977338;28;20046;-88
2023/01/28 12:31:34;;;;;;;2.10;2.00;;;;;;;;;;4994310;28;20681;-87
2023/01/28 12:34:07;;;;;;;0.60;0.60;;;;;;;;;;4995455;28;20046;-87
2023/01/28 12:36:43;;;;;;;1.75;1.65;;;;;;;;;;4996386;28;20133;-89
2023/01/28 12:39:16;;;;;;;2.03;1.92;;;;;;;;;;4996957;28;20046;-87
2023/01/28 12:41:45;;;;;;;2.05;1.95;;;;;;;;;;4996510;28;20054;-87
2023/01/28 12:44:13;;;;;;;1.77;1.58;;;;;;;;;;4995753;28;20057;-87
2023/01/28 12:46:42;;;;;;;2.70;1.52;;;;;;;;;;4995633;28;20096;-88
2023/01/28 12:49:13;;;;;;;1.48;1.25;;;;;;;;;;4991874;28;20059;-87
2023/01/28 12:51:49;;;;;;;1.92;1.65;;;;;;;;;;4995330;28;20061;-87
2023/01/28 12:54:17;;;;;;;5.53;3.10;;;;;;;;;;4995533;28;20464;-87
2023/01/28 12:56:46;;;;;;;0.80;0.80;;;;;;;;;;4995381;28;20043;-87
2023/01/28 12:59:14;;;;;;;2.00;1.85;;;;;;;;;;4995907;28;20133;-87
2023/01/28 13:01:42;;;;;;;1.80;1.10;;;;;;;;;;4995123;28;20101;-87
2023/01/28 13:04:12;;;;;;;1.58;1.48;;;;;;;;;;4991180;28;20057;-88
2023/01/28 13:06:41;;;;;;;1.80;1.70;;;;;;;;;;4975879;28;20043;-88
2023/01/28 13:09:14;;;;;;;1.13;1.02;;;;;;;;;;4975083;28;20054;-86
2023/01/28 13:11:41;;;;;;;3.45;3.30;;;;;;;;;;4975635;28;20491;-87
2023/01/28 13:14:10;;;;;;;1.05;0.68;;;;;;;;;;4975960;28;20085;-87
2023/01/28 13:16:36;;;;;;;2.10;2.00;;;;;;;;;;4975725;28;20098;-87
2023/01/28 13:19:07;;;;;;;2.95;2.20;;;;;;;;;;4975937;28;20192;-87
2023/01/28 13:21:34;;;;;;;1.98;1.58;;;;;;;;;;4980411;28;20054;-87
2023/01/28 13:24:06;;;;;;;1.25;1.15;;;;;;;;;;4994713;28;20103;-88
2023/01/28 13:26:42;;;;;;;0.82;0.75;;;;;;;;;;4994931;28;20112;-87
2023/01/28 13:29:17;;;;;;;2.63;2.42;;;;;;;;;;4995105;28;20085;-87
2023/01/28 13:31:45;;;;;;;1.50;1.40;;;;;;;;;;4994868;28;20582;-88
2023/01/28 13:34:25;;;;;;;1.27;1.17;;;;;;;;;;4994790;28;20112;-86
2023/01/28 13:36:52;;;;;;;2.60;1.85;;;;;;;;;;4995100;28;20050;-87
2023/01/28 13:39:20;;;;;;;1.15;1.02;;;;;;;;;;4992943;28;20046;-88
2023/01/28 13:41:49;;;;;;;3.03;2.83;;;;;;;;;;4991327;28;20113;-88
2023/01/28 13:44:20;;;;;;;0.35;0.35;;;;;;;;;;4994108;28;20061;-87
2023/01/28 13:46:47;;;;;;;1.10;1.00;;;;;;;;;;4994205;28;20050;-87
2023/01/28 13:49:15;;;;;;;1.58;1.48;;;;;;;;;;4994897;28;20050;-87
2023/01/28 13:51:47;;;;;;;1.27;1.25;;;;;;;;;;4991057;28;20047;-87
2023/01/28 13:54:16;;;;;;;2.17;1.73;;;;;;;;;;4974893;28;20054;-87
2023/01/28 13:56:55;;;;;;;0.95;0.77;;;;;;;;;;4979497;28;20097;-88
2023/01/28 13:59:30;;;;;;;0.55;0.55;;;;;;;;;;4975793;28;20050;-86
2023/01/28 14:02:13;;;;;;;2.40;2.25;;;;;;;;;;4975287;28;20050;-86
2023/01/28 14:05:03;;;;;;;2.13;1.92;;;;;;;;;;4975070;28;20059;-85
2023/01/28 14:07:29;;;;;;;;;;;;;;;;;;4975581;28;20093;-87
2023/01/28 14:10:06;;;;;;;1.88;1.77;;;;;;;;;;4974502;28;19921;-87
2023/01/28 14:12:50;;;;;;;1.02;1.02;;;;;;;;;;4974710;28;20054;-87
2023/01/28 14:15:28;;;;;;;1.05;0.95;;;;;;;;;;4987614;28;20105;-88
2023/01/28 14:17:56;;;;;;;1.60;1.50;;;;;;;;;;4994833;28;20046;-87
2023/01/28 14:20:26;;;;;;;0.70;0.70;;;;;;;;;;4994237;28;20061;-87
2023/01/28 14:22:57;;;;;;;1.25;1.13;;;;;;;;;;4994017;28;20054;-87
2023/01/28 14:25:29;;;;;;;1.48;1.40;;;;;;;;;;4993949;28;20050;-87
2023/01/28 14:27:56;;;;;;;2.17;2.08;;;;;;;;;;4993939;28;20104;-86
2023/01/28 14:30:29;;;;;;;3.95;3.75;;;;;;;;;;4993986;28;20730;-86
2023/01/28 14:32:55;;;;;;;2.63;2.42;;;;;;;;;;4982970;28;20129;-86
2023/01/28 14:35:24;;;;;;;4.03;3.78;;;;;;;;;;4974618;28;20051;-86
2023/01/28 14:37:51;;;;;;;4.88;3.03;;;;;;;;;;4976222;28;20057;-86
2023/01/28 14:40:19;;;;;;;2.40;2.28;;;;;;;;;;4974942;28;20050;-87
2023/01/28 14:42:46;;;;;;;4.00;2.00;;;;;;;;;;4973892;28;20555;-87
2023/01/28 14:45:19;;;;;;;0.98;0.98;;;;;;;;;;4973960;28;20053;-88
2023/01/28 14:48:04;;;;;;;1.17;1.13;;;;;;;;;;4974237;28;20051;-87
2023/01/28 14:50:37;;;;;;;2.63;2.42;;;;;;;;;;4974813;28;20055;-87
2023/01/28 14:53:21;;;;;;;1.67;1.60;;;;;;;;;;4973788;28;20055;-88
2023/01/28 14:55:52;;;;;;;0.98;0.85;;;;;;;;;;4974512;28;20054;-87
2023/01/28 14:58:20;;;;;;;0.80;0.80;;;;;;;;;;4974706;28;20086;-87
2023/01/28 15:00:53;;;;;;;1.48;1.48;;;;;;;;;;4974431;28;20043;-87
2023/01/28 15:03:21;;;;;;;1.23;1.15;;;;;;;;;;4974678;28;20055;-86
2023/01/28 15:05:48;;;;;;;2.25;1.92;;;;;;;;;;4985280;28;20047;-89
2023/01/28 15:08:21;;;;;;;0.68;0.68;;;;;;;;;;4973715;28;20110;-89
2023/01/28 15:10:48;;;;;;;2.65;2.45;;;;;;;;;;4974033;28;20472;-86
2023/01/28 15:13:17;;;;;;;1.52;1.42;;;;;;;;;;4973935;28;20464;-89
2023/01/28 15:15:46;;;;;;;1.70;1.60;;;;;;;;;;4974001;28;20117;-87
2023/01/28 15:18:15;;;;;;;2.17;1.73;;;;;;;;;;4974007;28;20051;-88
2023/01/28 15:20:45;;;;;;;1.27;1.17;;;;;;;;;;4973965;28;20055;-88
2023/01/28 15:23:14;;;;;;;2.75;2.55;;;;;;;;;;4975361;28;20460;-88
2023/01/28 15:25:40;;;;;;;2.33;2.17;;;;;;;;;;4973730;28;20058;-88
2023/01/28 15:28:12;;;;;;;2.90;2.40;;;;;;;;;;4974267;28;20105;-87
2023/01/28 15:30:44;;;;;;;1.20;1.10;;;;;;;;;;4973889;28;20050;-86
2023/01/28 15:33:13;;;;;;;0.82;0.73;;;;;;;;;;4976797;28;20389;-86